Time;durP1;ratioP1;P1;durP2;ratioP2;P2;SDS_P1;SDS_P2;PMS_P1;PMS_P2;Temp;Humidity;BMP_temperature;BMP_pressure;BME280_temperature;BME280_humidity;BME280_pressure;Samples;Min_cycle;Max_cycle;Signal;HPM_P1;HPM_P2
2023/03/10 00:02:25;;;;;;;12.03;7.70;;;;;;;;;;5008226;28;20207;-76
2023/03/10 00:04:51;;;;;;;11.17;7.57;;;;;;;;;;5005604;28;20183;-78
2023/03/10 00:07:16;;;;;;;9.83;6.90;;;;;;;;;;5008231;28;20539;-78
2023/03/10 00:09:41;;;;;;;10.50;7.57;;;;;;;;;;4999983;28;20207;-78
2023/03/10 00:12:07;;;;;;;12.33;8.27;;;;;;;;;;5007562;28;20664;-78
2023/03/10 00:14:32;;;;;;;10.90;7.27;;;;;;;;;;5000460;28;20241;-77
2023/03/10 00:16:57;;;;;;;10.40;6.97;;;;;;;;;;4998821;28;20209;-78
2023/03/10 00:19:22;;;;;;;9.30;6.43;;;;;;;;;;5010602;28;20183;-78
2023/03/10 00:21:47;;;;;;;11.33;6.83;;;;;;;;;;4998984;28;20203;-78
2023/03/10 00:24:13;;;;;;;12.40;7.37;;;;;;;;;;5007990;28;20177;-78
2023/03/10 00:26:38;;;;;;;12.70;7.87;;;;;;;;;;5007423;28;20171;-78
2023/03/10 00:29:03;;;;;;;11.37;7.30;;;;;;;;;;5014371;28;20228;-78
2023/03/10 00:31:30;;;;;;;10.93;6.43;;;;;;;;;;5002234;28;20178;-78
2023/03/10 00:33:55;;;;;;;11.37;7.13;;;;;;;;;;5001098;28;20713;-78
2023/03/10 00:36:22;;;;;;;10.13;6.80;;;;;;;;;;4994363;28;20215;-77
2023/03/10 00:38:48;;;;;;;12.77;7.20;;;;;;;;;;4994274;28;20260;-77
2023/03/10 00:41:15;;;;;;;13.90;8.07;;;;;;;;;;4998180;28;20199;-77
2023/03/10 00:43:40;;;;;;;10.17;6.50;;;;;;;;;;4994151;28;20207;-77
2023/03/10 00:46:06;;;;;;;10.30;6.90;;;;;;;;;;4971102;28;21437;-77
2023/03/10 00:48:31;;;;;;;12.13;7.17;;;;;;;;;;4971325;28;20168;-77
2023/03/10 00:50:57;;;;;;;11.80;7.57;;;;;;;;;;4970883;28;20550;-77
2023/03/10 00:53:23;;;;;;;11.80;7.60;;;;;;;;;;4979868;28;20713;-77
2023/03/10 00:56:05;;;;;;;10.70;7.20;;;;;;;;;;4992316;28;20175;-77
2023/03/10 00:58:31;;;;;;;12.00;7.03;;;;;;;;;;4995085;28;20196;-77
2023/03/10 01:00:56;;;;;;;12.30;7.53;;;;;;;;;;5001984;28;20199;-77
2023/03/10 01:03:21;;;;;;;10.60;6.50;;;;;;;;;;4991452;28;20249;-77
2023/03/10 01:05:48;;;;;;;10.83;7.37;;;;;;;;;;4994219;28;20629;-77
2023/03/10 01:08:13;;;;;;;11.37;6.87;;;;;;;;;;4993279;28;20583;-77
2023/03/10 01:10:38;;;;;;;12.53;7.37;;;;;;;;;;4989727;28;20279;-77
2023/03/10 01:13:03;;;;;;;10.77;6.67;;;;;;;;;;4984356;28;20283;-77
2023/03/10 01:15:29;;;;;;;11.90;7.97;;;;;;;;;;4974855;28;20204;-77
2023/03/10 01:17:54;;;;;;;12.67;8.00;;;;;;;;;;4978165;28;20608;-77
2023/03/10 01:20:19;;;;;;;8.73;5.97;;;;;;;;;;4976524;28;20273;-77
2023/03/10 01:22:44;;;;;;;10.57;7.07;;;;;;;;;;4966039;28;20811;-77
2023/03/10 01:25:13;;;;;;;10.60;7.27;;;;;;;;;;4968708;28;20271;-77
2023/03/10 01:27:39;;;;;;;10.33;6.97;;;;;;;;;;4982622;28;20179;-77
2023/03/10 01:30:04;;;;;;;11.43;7.80;;;;;;;;;;4972311;28;20180;-77
2023/03/10 01:32:29;;;;;;;9.60;6.70;;;;;;;;;;4969513;28;20203;-77
2023/03/10 01:34:55;;;;;;;11.00;7.57;;;;;;;;;;4972603;28;20192;-77
2023/03/10 01:37:20;;;;;;;10.20;6.87;;;;;;;;;;4970458;28;20183;-77
2023/03/10 01:39:45;;;;;;;10.03;6.43;;;;;;;;;;4972706;28;20175;-77
2023/03/10 01:42:10;;;;;;;9.67;6.93;;;;;;;;;;4970671;28;20211;-78
2023/03/10 01:44:35;;;;;;;11.37;7.60;;;;;;;;;;4993996;28;20594;-78
2023/03/10 01:47:00;;;;;;;10.27;6.67;;;;;;;;;;4994973;28;20213;-78
2023/03/10 01:49:43;;;;;;;10.03;7.07;;;;;;;;;;4985265;28;20176;-78
2023/03/10 01:52:13;;;;;;;9.33;6.40;;;;;;;;;;4988163;28;20206;-78
2023/03/10 01:54:45;;;;;;;9.40;7.33;;;;;;;;;;4989091;28;20188;-78
2023/03/10 01:57:12;;;;;;;11.80;7.10;;;;;;;;;;4998332;28;20186;-78
2023/03/10 01:59:38;;;;;;;10.60;6.70;;;;;;;;;;4991002;28;20194;-79
2023/03/10 02:02:03;;;;;;;10.30;6.60;;;;;;;;;;4990287;28;20206;-76
2023/03/10 02:04:32;;;;;;;11.40;7.67;;;;;;;;;;4989019;28;20185;-79
2023/03/10 02:06:58;;;;;;;10.43;6.73;;;;;;;;;;4988819;28;20171;-79
2023/03/10 02:09:23;;;;;;;10.03;7.37;;;;;;;;;;5004085;28;20184;-77
2023/03/10 02:11:48;;;;;;;10.10;6.57;;;;;;;;;;4994798;28;20234;-77
2023/03/10 02:14:14;;;;;;;10.40;7.27;;;;;;;;;;5001595;28;20176;-79
2023/03/10 02:16:39;;;;;;;10.20;6.70;;;;;;;;;;5002941;28;20209;-76
2023/03/10 02:19:07;;;;;;;9.93;7.10;;;;;;;;;;5000137;28;20214;-77
2023/03/10 02:21:50;;;;;;;10.63;7.53;;;;;;;;;;5001731;28;20222;-78
2023/03/10 02:24:26;;;;;;;11.53;7.57;;;;;;;;;;4993597;28;20267;-79
2023/03/10 02:27:00;;;;;;;10.63;6.33;;;;;;;;;;4998225;28;20236;-79
2023/03/10 02:29:28;;;;;;;10.53;6.80;;;;;;;;;;4993029;28;20191;-76
2023/03/10 02:31:54;;;;;;;10.00;6.67;;;;;;;;;;4995549;28;20241;-77
2023/03/10 02:34:20;;;;;;;9.43;6.37;;;;;;;;;;4992694;28;20176;-79
2023/03/10 02:36:45;;;;;;;12.20;7.53;;;;;;;;;;4994687;28;20180;-77
2023/03/10 02:39:10;;;;;;;10.23;6.90;;;;;;;;;;5002573;28;20199;-77
2023/03/10 02:41:37;;;;;;;11.00;7.40;;;;;;;;;;5004044;28;20198;-77
2023/03/10 02:44:04;;;;;;;12.10;7.13;;;;;;;;;;4993096;28;20175;-77
2023/03/10 02:46:29;;;;;;;9.00;6.87;;;;;;;;;;5008187;28;20171;-79
2023/03/10 02:48:58;;;;;;;11.27;7.40;;;;;;;;;;4994828;28;20748;-77
2023/03/10 02:51:28;;;;;;;11.37;7.07;;;;;;;;;;5007946;28;20195;-77
2023/03/10 02:53:53;;;;;;;11.63;7.30;;;;;;;;;;5001857;28;20219;-79
2023/03/10 02:56:19;;;;;;;10.27;6.77;;;;;;;;;;4995629;28;20187;-78
2023/03/10 02:58:44;;;;;;;10.87;6.77;;;;;;;;;;4990476;28;20172;-78
2023/03/10 03:01:09;;;;;;;11.37;7.30;;;;;;;;;;5000275;28;20231;-78
2023/03/10 03:03:34;;;;;;;12.47;8.53;;;;;;;;;;4993551;28;20295;-79
2023/03/10 03:06:00;;;;;;;10.97;7.60;;;;;;;;;;5001331;28;20263;-78
2023/03/10 03:08:25;;;;;;;11.27;6.70;;;;;;;;;;4999236;28;20588;-77
2023/03/10 03:10:51;;;;;;;9.73;6.77;;;;;;;;;;5000775;28;20188;-79
2023/03/10 03:13:16;;;;;;;12.37;8.23;;;;;;;;;;5003803;28;20184;-76
2023/03/10 03:15:42;;;;;;;13.33;8.30;;;;;;;;;;5005185;28;20194;-77
2023/03/10 03:18:07;;;;;;;11.00;7.37;;;;;;;;;;5008275;28;20644;-77
2023/03/10 03:20:34;;;;;;;14.20;8.00;;;;;;;;;;5013442;28;20203;-77
2023/03/10 03:22:59;;;;;;;12.17;6.97;;;;;;;;;;5007208;28;20202;-77
2023/03/10 03:25:26;;;;;;;11.57;7.77;;;;;;;;;;5000258;28;20171;-79
2023/03/10 03:27:52;;;;;;;12.33;7.77;;;;;;;;;;5006512;28;20206;-80
2023/03/10 03:30:22;;;;;;;12.07;8.10;;;;;;;;;;5003942;28;20243;-79
2023/03/10 03:32:47;;;;;;;11.83;7.67;;;;;;;;;;5002742;28;20454;-79
2023/03/10 03:35:14;;;;;;;13.53;8.40;;;;;;;;;;5000837;28;20182;-80
2023/03/10 03:37:40;;;;;;;12.00;8.10;;;;;;;;;;5001251;28;20187;-77
2023/03/10 03:40:11;;;;;;;12.17;7.53;;;;;;;;;;4999480;28;20175;-78
2023/03/10 03:42:37;;;;;;;10.10;7.07;;;;;;;;;;4996711;28;20221;-79
2023/03/10 03:45:03;;;;;;;10.70;6.90;;;;;;;;;;4997050;28;20179;-79
2023/03/10 03:47:28;;;;;;;10.23;6.87;;;;;;;;;;4997823;28;20172;-79
2023/03/10 03:49:54;;;;;;;10.90;7.23;;;;;;;;;;4999203;28;20183;-78
2023/03/10 03:52:19;;;;;;;12.80;7.13;;;;;;;;;;5000472;28;20212;-79
2023/03/10 03:54:44;;;;;;;10.80;6.60;;;;;;;;;;5000061;28;20211;-78
2023/03/10 03:57:09;;;;;;;11.30;7.40;;;;;;;;;;5009797;28;20270;-78
2023/03/10 03:59:34;;;;;;;9.33;6.47;;;;;;;;;;4994040;28;20187;-77
2023/03/10 04:01:59;;;;;;;10.40;6.93;;;;;;;;;;4992624;28;20725;-77
2023/03/10 04:04:25;;;;;;;10.37;6.90;;;;;;;;;;5005622;28;20175;-77
2023/03/10 04:06:50;;;;;;;10.37;6.40;;;;;;;;;;5003147;28;20180;-78
2023/03/10 04:09:16;;;;;;;9.47;6.33;;;;;;;;;;5001233;28;20229;-77
2023/03/10 04:11:42;;;;;;;11.30;6.50;;;;;;;;;;4998041;28;20180;-77
2023/03/10 04:14:07;;;;;;;10.40;6.93;;;;;;;;;;4996084;28;20183;-77
2023/03/10 04:16:32;;;;;;;9.77;6.43;;;;;;;;;;5001628;28;20180;-79
2023/03/10 04:18:57;;;;;;;10.63;7.07;;;;;;;;;;5010901;28;20179;-79
2023/03/10 04:21:22;;;;;;;8.47;6.23;;;;;;;;;;4999924;28;20343;-79
2023/03/10 04:23:48;;;;;;;8.37;5.93;;;;;;;;;;5004259;28;20199;-78
2023/03/10 04:26:13;;;;;;;9.10;6.03;;;;;;;;;;4999974;28;20171;-79
2023/03/10 04:28:38;;;;;;;10.03;6.47;;;;;;;;;;5010844;28;20174;-79
2023/03/10 04:31:03;;;;;;;9.97;6.27;;;;;;;;;;5004945;28;20253;-77
2023/03/10 04:33:29;;;;;;;7.63;5.47;;;;;;;;;;5001840;28;20206;-77
2023/03/10 04:35:54;;;;;;;10.20;6.57;;;;;;;;;;5000584;28;20660;-77
2023/03/10 04:38:22;;;;;;;11.07;6.90;;;;;;;;;;5003595;28;20179;-79
2023/03/10 04:40:52;;;;;;;8.43;5.60;;;;;;;;;;5000132;28;20179;-77
2023/03/10 04:43:17;;;;;;;9.70;6.40;;;;;;;;;;5008881;28;20206;-77
2023/03/10 04:45:42;;;;;;;10.60;6.30;;;;;;;;;;5005806;28;20179;-77
2023/03/10 04:48:07;;;;;;;9.17;5.73;;;;;;;;;;4999613;28;20297;-77
2023/03/10 04:50:33;;;;;;;10.60;6.00;;;;;;;;;;4997525;28;20188;-77
2023/03/10 04:52:58;;;;;;;7.80;5.40;;;;;;;;;;5000787;28;23618;-79
2023/03/10 04:55:23;;;;;;;9.10;6.10;;;;;;;;;;4994932;28;20179;-81
2023/03/10 04:57:48;;;;;;;7.60;5.23;;;;;;;;;;4995822;28;20654;-80
2023/03/10 05:00:14;;;;;;;8.93;5.30;;;;;;;;;;4999532;28;20230;-81
2023/03/10 05:02:39;;;;;;;8.90;5.67;;;;;;;;;;5001804;28;20215;-80
2023/03/10 05:05:04;;;;;;;8.17;4.97;;;;;;;;;;5003270;28;20638;-80
2023/03/10 05:07:30;;;;;;;9.20;5.23;;;;;;;;;;5003888;28;20214;-81
2023/03/10 05:09:55;;;;;;;7.00;4.63;;;;;;;;;;5003381;28;20207;-80
2023/03/10 05:12:20;;;;;;;7.23;5.10;;;;;;;;;;4998251;28;20226;-80
2023/03/10 05:14:45;;;;;;;7.80;4.70;;;;;;;;;;5004768;28;20183;-79
2023/03/10 05:17:11;;;;;;;7.67;5.13;;;;;;;;;;5008842;28;20175;-80
2023/03/10 05:19:36;;;;;;;6.63;4.83;;;;;;;;;;5003204;28;20190;-79
2023/03/10 05:22:02;;;;;;;8.87;5.00;;;;;;;;;;4999454;28;20310;-79
2023/03/10 05:24:28;;;;;;;8.93;5.10;;;;;;;;;;4999661;28;20186;-79
2023/03/10 05:26:53;;;;;;;9.77;5.23;;;;;;;;;;4998894;28;20180;-80
2023/03/10 05:29:19;;;;;;;10.37;5.83;;;;;;;;;;5009052;28;20178;-79
2023/03/10 05:31:45;;;;;;;7.87;4.83;;;;;;;;;;5003275;28;20555;-79
2023/03/10 05:34:10;;;;;;;7.10;4.17;;;;;;;;;;5006398;28;20175;-79
2023/03/10 05:36:35;;;;;;;8.80;5.10;;;;;;;;;;5001380;28;20552;-79
2023/03/10 05:39:00;;;;;;;10.17;5.33;;;;;;;;;;5007051;28;20818;-79
2023/03/10 05:41:26;;;;;;;8.30;4.90;;;;;;;;;;5000343;28;20195;-80
2023/03/10 05:43:51;;;;;;;8.37;5.53;;;;;;;;;;5004519;28;20621;-79
2023/03/10 05:46:16;;;;;;;9.10;4.83;;;;;;;;;;5001604;28;20179;-79
2023/03/10 05:48:41;;;;;;;9.77;5.20;;;;;;;;;;4993459;28;20258;-79
2023/03/10 05:51:10;;;;;;;11.17;6.43;;;;;;;;;;5002283;28;20189;-80
2023/03/10 05:53:36;;;;;;;12.90;5.63;;;;;;;;;;4997227;28;20281;-82
2023/03/10 05:56:05;;;;;;;8.20;5.07;;;;;;;;;;4992710;28;20168;-80
2023/03/10 05:58:30;;;;;;;10.53;6.23;;;;;;;;;;5003595;28;20711;-82
2023/03/10 06:00:55;;;;;;;11.00;5.47;;;;;;;;;;4993926;28;20176;-80
2023/03/10 06:03:22;;;;;;;10.30;5.37;;;;;;;;;;4994292;28;20206;-80
2023/03/10 06:05:47;;;;;;;12.93;7.67;;;;;;;;;;4998038;28;20266;-80
2023/03/10 06:08:13;;;;;;;10.07;5.57;;;;;;;;;;5000801;28;20210;-81
2023/03/10 06:10:38;;;;;;;9.60;5.47;;;;;;;;;;4999316;28;20167;-79
2023/03/10 06:13:03;;;;;;;10.50;5.83;;;;;;;;;;4990705;28;20200;-82
2023/03/10 06:15:29;;;;;;;10.23;5.63;;;;;;;;;;5000537;28;20183;-80
2023/03/10 06:17:54;;;;;;;9.40;5.80;;;;;;;;;;5003193;28;20179;-80
2023/03/10 06:20:19;;;;;;;12.70;5.80;;;;;;;;;;5005867;28;20175;-81
2023/03/10 06:22:44;;;;;;;12.70;6.77;;;;;;;;;;5001157;28;20265;-81
2023/03/10 06:25:09;;;;;;;9.60;5.60;;;;;;;;;;5007309;28;20208;-81
2023/03/10 06:27:35;;;;;;;12.27;6.20;;;;;;;;;;4998374;28;20175;-80
2023/03/10 06:30:00;;;;;;;9.77;6.00;;;;;;;;;;5008981;28;20183;-81
2023/03/10 06:32:25;;;;;;;10.63;5.97;;;;;;;;;;5014344;28;20207;-81
2023/03/10 06:34:50;;;;;;;9.60;5.30;;;;;;;;;;5008093;28;20186;-80
2023/03/10 06:37:15;;;;;;;10.63;5.40;;;;;;;;;;5013367;28;20175;-80
2023/03/10 06:39:41;;;;;;;10.03;5.60;;;;;;;;;;5005998;28;20188;-81
2023/03/10 06:42:07;;;;;;;11.50;5.10;;;;;;;;;;4995065;28;20234;-80
2023/03/10 06:44:33;;;;;;;9.20;5.30;;;;;;;;;;5003100;28;20183;-81
2023/03/10 06:46:58;;;;;;;9.63;5.13;;;;;;;;;;5001876;28;20199;-81
2023/03/10 06:49:27;;;;;;;12.87;5.43;;;;;;;;;;5004715;28;20179;-81
2023/03/10 06:51:52;;;;;;;9.03;5.33;;;;;;;;;;5007879;28;20194;-80
2023/03/10 06:54:17;;;;;;;8.73;5.23;;;;;;;;;;5001174;28;20204;-81
2023/03/10 06:56:42;;;;;;;9.10;4.60;;;;;;;;;;4997347;28;20581;-82
2023/03/10 06:59:08;;;;;;;8.37;4.83;;;;;;;;;;5000459;28;20203;-81
2023/03/10 07:01:33;;;;;;;8.43;5.07;;;;;;;;;;4991847;28;20258;-81
2023/03/10 07:04:00;;;;;;;9.97;5.33;;;;;;;;;;5000792;28;20180;-81
2023/03/10 07:06:25;;;;;;;8.80;5.40;;;;;;;;;;5001925;28;20195;-80
2023/03/10 07:08:50;;;;;;;10.37;5.27;;;;;;;;;;4998782;28;20179;-80
2023/03/10 07:11:16;;;;;;;12.20;5.20;;;;;;;;;;5003086;28;20211;-80
2023/03/10 07:13:41;;;;;;;16.57;5.20;;;;;;;;;;4999539;28;20493;-82
2023/03/10 07:16:07;;;;;;;7.80;4.60;;;;;;;;;;5026729;28;20235;-83
2023/03/10 07:18:32;;;;;;;8.53;5.57;;;;;;;;;;5016006;28;20176;-80
2023/03/10 07:20:58;;;;;;;9.30;5.40;;;;;;;;;;4998655;28;20654;-80
2023/03/10 07:23:23;;;;;;;8.03;4.53;;;;;;;;;;5002855;28;20334;-81
2023/03/10 07:25:52;;;;;;;7.27;4.50;;;;;;;;;;5008669;28;20213;-81
2023/03/10 07:28:17;;;;;;;8.80;5.10;;;;;;;;;;4995554;28;20172;-81
2023/03/10 07:30:42;;;;;;;11.13;5.27;;;;;;;;;;5003770;28;20290;-81
2023/03/10 07:33:07;;;;;;;8.33;4.50;;;;;;;;;;5001535;28;20198;-81
2023/03/10 07:35:33;;;;;;;9.20;5.00;;;;;;;;;;5001779;28;20316;-81
2023/03/10 07:37:58;;;;;;;17.80;4.20;;;;;;;;;;5004761;28;20167;-81
2023/03/10 07:40:23;;;;;;;6.60;4.33;;;;;;;;;;4997454;28;20529;-80
2023/03/10 07:42:50;;;;;;;7.57;4.53;;;;;;;;;;5004848;28;20200;-80
2023/03/10 07:45:15;;;;;;;6.90;4.33;;;;;;;;;;4999810;28;20171;-80
2023/03/10 07:47:40;;;;;;;7.47;4.20;;;;;;;;;;4996538;28;20194;-81
2023/03/10 07:50:05;;;;;;;8.87;4.17;;;;;;;;;;5007178;28;20171;-80
2023/03/10 07:52:31;;;;;;;5.80;3.87;;;;;;;;;;5002511;28;20230;-80
2023/03/10 07:54:56;;;;;;;6.20;4.07;;;;;;;;;;4996911;28;20190;-81
2023/03/10 07:57:21;;;;;;;6.43;3.37;;;;;;;;;;4997955;28;20538;-80
2023/03/10 07:59:46;;;;;;;8.07;3.77;;;;;;;;;;5006510;28;20172;-80
2023/03/10 08:02:12;;;;;;;6.00;3.87;;;;;;;;;;4988307;28;20336;-80
2023/03/10 08:04:37;;;;;;;6.17;3.50;;;;;;;;;;5002118;28;20615;-80
2023/03/10 08:07:03;;;;;;;6.17;3.60;;;;;;;;;;4993726;28;20206;-80
2023/03/10 08:09:28;;;;;;;5.13;3.23;;;;;;;;;;5003005;28;20216;-81
2023/03/10 08:11:54;;;;;;;4.47;3.20;;;;;;;;;;4998952;28;20239;-80
2023/03/10 08:14:22;;;;;;;6.90;3.93;;;;;;;;;;4999303;28;20273;-78
2023/03/10 08:16:48;;;;;;;4.90;3.13;;;;;;;;;;5003677;28;20190;-79
2023/03/10 08:19:13;;;;;;;5.07;2.70;;;;;;;;;;5002398;28;20180;-78
2023/03/10 08:21:38;;;;;;;4.80;3.27;;;;;;;;;;4995845;28;20251;-79
2023/03/10 08:24:03;;;;;;;5.37;3.50;;;;;;;;;;4993484;28;20179;-76
2023/03/10 08:26:29;;;;;;;4.37;3.13;;;;;;;;;;5006018;28;20179;-80
2023/03/10 08:28:54;;;;;;;5.93;3.43;;;;;;;;;;5008228;28;20731;-81
2023/03/10 08:31:19;;;;;;;4.77;3.60;;;;;;;;;;5004472;28;20266;-80
2023/03/10 08:33:44;;;;;;;5.57;3.20;;;;;;;;;;5009001;28;20213;-80
2023/03/10 08:36:11;;;;;;;5.17;3.30;;;;;;;;;;4997287;28;20183;-80
2023/03/10 08:38:37;;;;;;;5.30;3.53;;;;;;;;;;5006184;28;20214;-80
2023/03/10 08:41:28;;;;;;;4.03;2.70;;;;;;;;;;5001293;28;20636;-78
2023/03/10 08:43:54;;;;;;;4.50;3.17;;;;;;;;;;5001947;28;20322;-78
2023/03/10 08:46:21;;;;;;;4.10;2.93;;;;;;;;;;4987059;28;20184;-79
2023/03/10 08:48:47;;;;;;;4.83;2.93;;;;;;;;;;4996603;28;20210;-78
2023/03/10 08:51:12;;;;;;;3.67;2.63;;;;;;;;;;5004174;28;20266;-78
2023/03/10 08:53:37;;;;;;;3.03;2.50;;;;;;;;;;4995283;28;20218;-81
2023/03/10 08:56:04;;;;;;;3.53;2.50;;;;;;;;;;4995204;28;20183;-78
2023/03/10 08:58:29;;;;;;;4.63;2.57;;;;;;;;;;5001442;28;20666;-79
2023/03/10 09:00:54;;;;;;;4.07;2.70;;;;;;;;;;4996670;28;20172;-81
2023/03/10 09:03:19;;;;;;;2.90;2.20;;;;;;;;;;5002380;28;20199;-78
2023/03/10 09:05:45;;;;;;;4.33;2.33;;;;;;;;;;4999019;28;20180;-80
2023/03/10 09:08:10;;;;;;;7.13;2.97;;;;;;;;;;5004528;28;20910;-79
2023/03/10 09:10:36;;;;;;;4.30;2.37;;;;;;;;;;5002571;28;20266;-80
2023/03/10 09:13:02;;;;;;;4.43;2.13;;;;;;;;;;5008784;28;20589;-79
2023/03/10 09:15:27;;;;;;;3.10;2.27;;;;;;;;;;5012765;28;20251;-80
2023/03/10 09:17:54;;;;;;;4.13;2.57;;;;;;;;;;5014560;28;20654;-81
2023/03/10 09:20:24;;;;;;;4.23;2.70;;;;;;;;;;5014878;28;20179;-80
2023/03/10 09:22:53;;;;;;;4.57;2.23;;;;;;;;;;4996688;28;20207;-80
2023/03/10 09:25:20;;;;;;;2.07;1.70;;;;;;;;;;5004405;28;20211;-80
2023/03/10 09:27:46;;;;;;;5.20;2.37;;;;;;;;;;5002494;28;20191;-82
2023/03/10 09:30:11;;;;;;;4.53;2.17;;;;;;;;;;4999324;28;20187;-80
2023/03/10 09:32:37;;;;;;;4.40;2.17;;;;;;;;;;5001117;28;20312;-81
2023/03/10 09:35:02;;;;;;;3.60;2.23;;;;;;;;;;5002150;28;20184;-80
2023/03/10 09:37:27;;;;;;;2.40;1.87;;;;;;;;;;4996145;28;20191;-81
2023/03/10 09:39:53;;;;;;;2.77;1.70;;;;;;;;;;4989293;28;20188;-79
2023/03/10 09:42:39;;;;;;;2.27;1.80;;;;;;;;;;4994742;28;20253;-80
2023/03/10 09:45:20;;;;;;;2.30;1.60;;;;;;;;;;5000412;28;20183;-80
2023/03/10 09:47:45;;;;;;;3.00;2.00;;;;;;;;;;4994356;28;20266;-80
2023/03/10 09:50:13;;;;;;;2.97;2.00;;;;;;;;;;4998130;28;20210;-80
2023/03/10 09:52:46;;;;;;;4.40;2.77;;;;;;;;;;5004435;28;20217;-81
2023/03/10 09:55:19;;;;;;;2.53;1.93;;;;;;;;;;5024293;28;20250;-82
2023/03/10 09:57:46;;;;;;;4.47;2.37;;;;;;;;;;5016936;28;20207;-82
2023/03/10 10:00:16;;;;;;;4.10;2.50;;;;;;;;;;5023008;28;20202;-84
2023/03/10 10:02:44;;;;;;;3.20;2.30;;;;;;;;;;5011618;28;20268;-81
2023/03/10 10:05:16;;;;;;;3.70;2.10;;;;;;;;;;5018872;28;20642;-82
2023/03/10 10:07:45;;;;;;;3.57;2.17;;;;;;;;;;5016294;28;20215;-81
2023/03/10 10:10:15;;;;;;;3.40;1.97;;;;;;;;;;5018587;28;20179;-83
2023/03/10 10:12:42;;;;;;;3.20;2.10;;;;;;;;;;5023307;28;20195;-80
2023/03/10 10:15:15;;;;;;;2.73;1.67;;;;;;;;;;5018731;28;20176;-80
2023/03/10 10:17:52;;;;;;;3.47;2.17;;;;;;;;;;5022214;28;20187;-81
2023/03/10 10:20:46;;;;;;;3.27;2.23;;;;;;;;;;5014533;28;20176;-81
2023/03/10 10:23:27;;;;;;;2.97;2.10;;;;;;;;;;5016124;28;20224;-79
2023/03/10 10:25:53;;;;;;;3.50;1.67;;;;;;;;;;5004290;28;20587;-79
2023/03/10 10:28:31;;;;;;;2.70;1.97;;;;;;;;;;5000129;28;20222;-80
2023/03/10 10:31:08;;;;;;;5.03;2.30;;;;;;;;;;4999321;28;20205;-79
2023/03/10 10:33:49;;;;;;;3.40;2.07;;;;;;;;;;4993160;28;20306;-79
2023/03/10 10:36:16;;;;;;;2.43;1.50;;;;;;;;;;4994090;28;21723;-79
2023/03/10 10:38:46;;;;;;;2.90;1.90;;;;;;;;;;5000984;28;20188;-80
2023/03/10 10:41:16;;;;;;;2.30;1.97;;;;;;;;;;4995769;28;20215;-80
2023/03/10 10:43:43;;;;;;;2.93;1.97;;;;;;;;;;4998508;28;20209;-80
2023/03/10 10:46:08;;;;;;;2.37;1.53;;;;;;;;;;4997008;28;20217;-79
2023/03/10 10:48:45;;;;;;;3.87;2.20;;;;;;;;;;4989324;28;20211;-81
2023/03/10 10:51:19;;;;;;;3.57;1.80;;;;;;;;;;5002009;28;20175;-79
2023/03/10 10:53:44;;;;;;;3.17;2.10;;;;;;;;;;5016657;22;20236;-70
2023/03/10 10:56:14;;;;;;;2.60;1.97;;;;;;;;;;4988347;28;20184;-71
2023/03/10 10:58:39;;;;;;;3.27;1.80;;;;;;;;;;4992500;28;20245;-70
2023/03/10 11:01:06;;;;;;;2.23;1.50;;;;;;;;;;4996554;28;20184;-70
2023/03/10 11:03:36;;;;;;;3.17;2.00;;;;;;;;;;4989305;28;20216;-70
2023/03/10 11:06:11;;;;;;;2.80;1.53;;;;;;;;;;4987920;28;20180;-70
2023/03/10 11:08:39;;;;;;;2.80;2.03;;;;;;;;;;4987384;28;20186;-70
2023/03/10 11:11:17;;;;;;;2.83;2.03;;;;;;;;;;4989623;28;20184;-68
2023/03/10 11:13:42;;;;;;;3.60;2.10;;;;;;;;;;4983403;28;20228;-68
2023/03/10 11:16:40;;;;;;;1.80;1.60;;;;;;;;;;4991773;28;20211;-68
2023/03/10 11:19:07;;;;;;;2.53;1.60;;;;;;;;;;4969396;28;20206;-68
2023/03/10 11:21:33;;;;;;;2.07;1.50;;;;;;;;;;4985864;28;20295;-69
2023/03/10 11:23:59;;;;;;;3.10;2.07;;;;;;;;;;4988089;28;20657;-69
2023/03/10 11:26:38;;;;;;;2.30;1.60;;;;;;;;;;4985147;28;20184;-69
2023/03/10 11:29:22;;;;;;;2.07;1.33;;;;;;;;;;4989039;28;20183;-69
2023/03/10 11:32:00;;;;;;;2.43;1.67;;;;;;;;;;4987428;28;20275;-69
2023/03/10 11:34:29;;;;;;;1.70;1.27;;;;;;;;;;4982878;28;20266;-69
2023/03/10 11:36:54;;;;;;;1.57;1.20;;;;;;;;;;4986682;28;20210;-69
2023/03/10 11:39:38;;;;;;;2.83;1.30;;;;;;;;;;4990765;28;20642;-68
2023/03/10 11:42:22;;;;;;;1.90;1.53;;;;;;;;;;4986348;28;20207;-68
2023/03/10 11:44:52;;;;;;;2.40;1.40;;;;;;;;;;4990073;28;20176;-69
2023/03/10 11:47:21;;;;;;;1.53;1.30;;;;;;;;;;4997749;28;20184;-69
2023/03/10 11:49:49;;;;;;;2.20;1.60;;;;;;;;;;4989845;28;20234;-69
2023/03/10 11:52:17;;;;;;;2.90;1.37;;;;;;;;;;4989528;28;20584;-69
2023/03/10 11:54:45;;;;;;;2.77;1.50;;;;;;;;;;4988576;28;20211;-69
2023/03/10 11:57:15;;;;;;;1.87;1.50;;;;;;;;;;4988629;28;20193;-69
2023/03/10 12:00:01;;;;;;;2.77;2.10;;;;;;;;;;4993472;28;20250;-70
2023/03/10 12:02:29;;;;;;;3.43;1.67;;;;;;;;;;4987867;28;20212;-71
2023/03/10 12:05:05;;;;;;;2.63;1.50;;;;;;;;;;4985483;28;20180;-70
2023/03/10 12:07:34;;;;;;;2.63;2.07;;;;;;;;;;4985740;28;20599;-70
2023/03/10 12:10:11;;;;;;;2.30;1.77;;;;;;;;;;4986577;28;20577;-70
2023/03/10 12:12:41;;;;;;;3.20;1.93;;;;;;;;;;4998791;28;20230;-71
2023/03/10 12:15:15;;;;;;;4.20;1.93;;;;;;;;;;4985273;28;20180;-70
2023/03/10 12:17:41;;;;;;;3.57;2.13;;;;;;;;;;4990360;28;20278;-70
2023/03/10 12:20:10;;;;;;;2.30;1.83;;;;;;;;;;4990156;28;20274;-70
2023/03/10 12:22:45;;;;;;;2.97;2.00;;;;;;;;;;4982567;28;20212;-70
2023/03/10 12:25:34;;;;;;;3.20;2.07;;;;;;;;;;4988488;28;20233;-70
2023/03/10 12:28:18;;;;;;;2.40;1.70;;;;;;;;;;4989550;28;20194;-70
2023/03/10 12:30:44;;;;;;;2.23;1.73;;;;;;;;;;4979177;28;20650;-70
2023/03/10 12:33:28;;;;;;;2.77;1.90;;;;;;;;;;4990469;28;20235;-70
2023/03/10 12:35:54;;;;;;;2.97;1.97;;;;;;;;;;4988841;28;20270;-70
2023/03/10 12:38:35;;;;;;;2.07;1.70;;;;;;;;;;4982868;28;20184;-70
2023/03/10 12:41:00;;;;;;;3.50;2.17;;;;;;;;;;4986236;28;20184;-70
2023/03/10 12:43:37;;;;;;;4.50;2.20;;;;;;;;;;4984279;28;20213;-70
2023/03/10 12:46:04;;;;;;;3.37;2.37;;;;;;;;;;4986832;28;21269;-70
2023/03/10 12:48:31;;;;;;;4.17;2.37;;;;;;;;;;4985221;28;20180;-69
2023/03/10 12:51:00;;;;;;;3.43;2.33;;;;;;;;;;4980993;28;20195;-69
2023/03/10 12:53:44;;;;;;;5.00;2.37;;;;;;;;;;4986804;28;20238;-70
2023/03/10 12:56:12;;;;;;;5.77;3.37;;;;;;;;;;4983782;28;20266;-70
2023/03/10 12:58:42;;;;;;;3.30;2.27;;;;;;;;;;4979235;28;20633;-69
2023/03/10 13:01:09;;;;;;;4.07;2.40;;;;;;;;;;4986080;28;20254;-69
2023/03/10 13:03:46;;;;;;;4.47;2.30;;;;;;;;;;5005530;28;20203;-69
2023/03/10 13:06:17;;;;;;;4.70;2.80;;;;;;;;;;4986262;28;20171;-69
2023/03/10 13:08:42;;;;;;;3.40;2.47;;;;;;;;;;4980083;28;20645;-69
2023/03/10 13:11:31;;;;;;;4.60;2.80;;;;;;;;;;4987998;28;20187;-69
2023/03/10 13:13:59;;;;;;;4.47;2.80;;;;;;;;;;4979273;28;20215;-69
2023/03/10 13:16:24;;;;;;;4.20;2.40;;;;;;;;;;4984796;28;20226;-69
2023/03/10 13:18:50;;;;;;;3.33;2.50;;;;;;;;;;4981836;28;20207;-69
2023/03/10 13:21:27;;;;;;;4.47;2.90;;;;;;;;;;4983930;28;20734;-69
2023/03/10 13:23:52;;;;;;;4.87;3.03;;;;;;;;;;4984789;28;20207;-69
2023/03/10 13:26:17;;;;;;;5.30;3.07;;;;;;;;;;4982734;28;20200;-69
2023/03/10 13:29:09;;;;;;;4.53;3.03;;;;;;;;;;4986521;28;20607;-69
2023/03/10 13:31:34;;;;;;;4.87;3.50;;;;;;;;;;4983343;28;20196;-70
2023/03/10 13:34:13;;;;;;;4.43;2.93;;;;;;;;;;4982516;28;20571;-69
2023/03/10 13:36:38;;;;;;;5.33;2.93;;;;;;;;;;4983002;28;20251;-69
2023/03/10 13:39:18;;;;;;;6.10;3.70;;;;;;;;;;4986409;28;20274;-69
2023/03/10 13:41:59;;;;;;;6.03;2.97;;;;;;;;;;4986116;28;20219;-69
2023/03/10 13:44:31;;;;;;;5.13;2.83;;;;;;;;;;4984326;28;20187;-70
2023/03/10 13:47:00;;;;;;;6.33;4.23;;;;;;;;;;4987849;28;20650;-69
2023/03/10 13:49:31;;;;;;;5.43;3.50;;;;;;;;;;4983458;28;20184;-69
2023/03/10 13:51:56;;;;;;;5.30;3.77;;;;;;;;;;4989975;28;20199;-70
2023/03/10 13:54:21;;;;;;;7.27;3.70;;;;;;;;;;4981536;28;20191;-70
2023/03/10 13:56:48;;;;;;;7.13;4.37;;;;;;;;;;4987709;28;20551;-70
2023/03/10 13:59:14;;;;;;;6.57;3.97;;;;;;;;;;4981815;28;20218;-70
2023/03/10 14:01:45;;;;;;;9.00;5.53;;;;;;;;;;4986550;28;20211;-70
2023/03/10 14:04:14;;;;;;;9.40;5.50;;;;;;;;;;4988101;28;20207;-70
2023/03/10 14:06:39;;;;;;;7.17;4.67;;;;;;;;;;4982399;28;20234;-69
2023/03/10 14:09:12;;;;;;;7.57;4.37;;;;;;;;;;4989867;28;20175;-69
2023/03/10 14:11:39;;;;;;;8.97;5.17;;;;;;;;;;4987019;28;20184;-69
2023/03/10 14:14:06;;;;;;;8.53;4.53;;;;;;;;;;4989573;28;20210;-69
2023/03/10 14:16:47;;;;;;;10.23;5.57;;;;;;;;;;4983318;28;20199;-69
2023/03/10 14:19:12;;;;;;;11.37;6.50;;;;;;;;;;4984521;28;20198;-70
2023/03/10 14:21:41;;;;;;;9.13;6.37;;;;;;;;;;4983445;28;20208;-70
2023/03/10 14:24:13;;;;;;;9.40;5.90;;;;;;;;;;4987329;28;20219;-70
2023/03/10 14:26:38;;;;;;;11.63;7.03;;;;;;;;;;4990951;28;20175;-70
2023/03/10 14:29:11;;;;;;;11.00;6.70;;;;;;;;;;4990094;28;20680;-70
2023/03/10 14:31:36;;;;;;;11.37;6.43;;;;;;;;;;4986569;28;20203;-70
2023/03/10 14:34:01;;;;;;;9.87;5.70;;;;;;;;;;4989990;28;20685;-70
2023/03/10 14:36:27;;;;;;;10.27;5.97;;;;;;;;;;4991827;28;20184;-70
2023/03/10 14:38:52;;;;;;;9.53;4.87;;;;;;;;;;4989339;28;20587;-70
2023/03/10 14:41:20;;;;;;;7.90;4.70;;;;;;;;;;4990034;28;20203;-70
2023/03/10 14:43:45;;;;;;;6.90;3.43;;;;;;;;;;4991649;28;20200;-70